sensor_id;sensor_type;location;lat;lon;timestamp;pressure;altitude;pressure_sealevel;temperature;humidity
27014;BME280;14556;52.222;4.510;2023-05-10T00:00:42;100149.72;;;8.91;100.00
27014;BME280;14556;52.222;4.510;2023-05-10T00:03:09;100152.19;;;8.92;100.00
27014;BME280;14556;52.222;4.510;2023-05-10T00:05:36;100155.69;;;8.93;100.00
27014;BME280;14556;52.222;4.510;2023-05-10T00:08:02;100156.28;;;8.88;100.00
27014;BME280;14556;52.222;4.510;2023-05-10T00:10:29;100156.47;;;8.87;100.00
27014;BME280;14556;52.222;4.510;2023-05-10T00:12:55;100159.97;;;8.80;100.00
27014;BME280;14556;52.222;4.510;2023-05-10T00:15:22;100147.44;;;8.81;100.00
27014;BME280;14556;52.222;4.510;2023-05-10T00:17:48;100142.09;;;8.74;100.00
27014;BME280;14556;52.222;4.510;2023-05-10T00:20:15;100139.66;;;8.79;100.00
27014;BME280;14556;52.222;4.510;2023-05-10T00:22:42;100132.28;;;8.75;100.00
27014;BME280;14556;52.222;4.510;2023-05-10T00:25:09;100145.59;;;8.81;100.00
27014;BME280;14556;52.222;4.510;2023-05-10T00:27:36;100143.56;;;8.83;100.00
27014;BME280;14556;52.222;4.510;2023-05-10T00:30:03;100139.22;;;8.76;100.00
27014;BME280;14556;52.222;4.510;2023-05-10T00:32:29;100147.44;;;8.74;100.00
27014;BME280;14556;52.222;4.510;2023-05-10T00:34:56;100145.41;;;8.76;100.00
27014;BME280;14556;52.222;4.510;2023-05-10T00:37:22;100148.88;;;8.70;100.00
27014;BME280;14556;52.222;4.510;2023-05-10T00:39:49;100148.88;;;8.63;100.00
27014;BME280;14556;52.222;4.510;2023-05-10T00:42:15;100150.31;;;8.59;100.00
27014;BME280;14556;52.222;4.510;2023-05-10T00:44:42;100149.06;;;8.62;100.00
27014;BME280;14556;52.222;4.510;2023-05-10T00:47:08;100147.22;;;8.55;100.00
27014;BME280;14556;52.222;4.510;2023-05-10T00:49:36;100144.72;;;8.47;100.00
27014;BME280;14556;52.222;4.510;2023-05-10T00:52:03;100145.28;;;8.42;100.00
27014;BME280;14556;52.222;4.510;2023-05-10T00:54:29;100148.78;;;8.43;100.00
27014;BME280;14556;52.222;4.510;2023-05-10T00:56:56;100141.41;;;8.31;100.00
27014;BME280;14556;52.222;4.510;2023-05-10T00:59:23;100149.41;;;8.38;100.00
27014;BME280;14556;52.222;4.510;2023-05-10T01:01:50;100140.56;;;8.31;100.00
27014;BME280;14556;52.222;4.510;2023-05-10T01:04:17;100153.91;;;8.44;100.00
27014;BME280;14556;52.222;4.510;2023-05-10T01:06:46;100149.63;;;8.43;100.00
27014;BME280;14556;52.222;4.510;2023-05-10T01:09:12;100154.13;;;8.43;100.00
27014;BME280;14556;52.222;4.510;2023-05-10T01:11:39;100159.25;;;8.38;100.00
27014;BME280;14556;52.222;4.510;2023-05-10T01:14:06;100164.75;;;8.29;100.00
27014;BME280;14556;52.222;4.510;2023-05-10T01:16:40;100164.13;;;8.27;100.00
27014;BME280;14556;52.222;4.510;2023-05-10T01:19:28;100173.16;;;8.33;100.00
27014;BME280;14556;52.222;4.510;2023-05-10T01:22:02;100179.38;;;8.47;100.00
27014;BME280;14556;52.222;4.510;2023-05-10T01:24:46;100173.41;;;8.52;100.00
27014;BME280;14556;52.222;4.510;2023-05-10T01:35:47;100194.44;;;8.75;100.00
27014;BME280;14556;52.222;4.510;2023-05-10T01:38:33;100199.78;;;8.82;100.00
27014;BME280;14556;52.222;4.510;2023-05-10T01:46:37;100197.31;;;8.87;100.00
27014;BME280;14556;52.222;4.510;2023-05-10T01:49:09;100204.28;;;8.95;100.00
27014;BME280;14556;52.222;4.510;2023-05-10T01:51:45;100205.31;;;8.94;100.00
27014;BME280;14556;52.222;4.510;2023-05-10T01:54:14;100203.28;;;8.96;100.00
27014;BME280;14556;52.222;4.510;2023-05-10T01:56:43;100199.56;;;8.97;100.00
27014;BME280;14556;52.222;4.510;2023-05-10T01:59:17;100208.00;;;9.01;100.00
27014;BME280;14556;52.222;4.510;2023-05-10T02:01:45;100204.50;;;9.00;100.00
27014;BME280;14556;52.222;4.510;2023-05-10T02:04:15;100209.88;;;9.07;100.00
27014;BME280;14556;52.222;4.510;2023-05-10T02:06:43;100198.97;;;9.09;100.00
27014;BME280;14556;52.222;4.510;2023-05-10T02:09:11;100198.78;;;9.10;100.00
27014;BME280;14556;52.222;4.510;2023-05-10T02:11:42;100192.19;;;9.06;100.00
27014;BME280;14556;52.222;4.510;2023-05-10T02:14:11;100200.41;;;9.04;100.00
27014;BME280;14556;52.222;4.510;2023-05-10T02:16:39;100211.28;;;9.16;100.00
27014;BME280;14556;52.222;4.510;2023-05-10T02:19:07;100209.25;;;9.18;100.00
27014;BME280;14556;52.222;4.510;2023-05-10T02:21:35;100210.06;;;9.19;100.00
27014;BME280;14556;52.222;4.510;2023-05-10T02:24:04;100209.25;;;9.18;100.00
27014;BME280;14556;52.222;4.510;2023-05-10T02:26:31;100222.16;;;9.22;100.00
27014;BME280;14556;52.222;4.510;2023-05-10T02:29:01;100225.47;;;9.24;100.00
27014;BME280;14556;52.222;4.510;2023-05-10T02:31:33;100221.38;;;9.28;100.00
27014;BME280;14556;52.222;4.510;2023-05-10T02:34:01;100218.69;;;9.28;100.00
27014;BME280;14556;52.222;4.510;2023-05-10T02:36:30;100225.47;;;9.30;100.00
27014;BME280;14556;52.222;4.510;2023-05-10T02:38:58;100227.50;;;9.28;100.00
27014;BME280;14556;52.222;4.510;2023-05-10T02:41:27;100226.50;;;9.29;100.00
27014;BME280;14556;52.222;4.510;2023-05-10T02:43:57;100228.97;;;9.31;100.00
27014;BME280;14556;52.222;4.510;2023-05-10T02:46:25;100229.78;;;9.31;100.00
27014;BME280;14556;52.222;4.510;2023-05-10T02:48:52;100216.81;;;9.28;100.00
27014;BME280;14556;52.222;4.510;2023-05-10T02:51:20;100216.03;;;9.28;100.00
27014;BME280;14556;52.222;4.510;2023-05-10T02:53:49;100230.16;;;9.35;100.00
27014;BME280;14556;52.222;4.510;2023-05-10T02:56:31;100241.25;;;9.32;100.00
27014;BME280;14556;52.222;4.510;2023-05-10T02:58:59;100237.78;;;9.31;100.00
27014;BME280;14556;52.222;4.510;2023-05-10T03:01:25;100234.72;;;9.28;100.00
27014;BME280;14556;52.222;4.510;2023-05-10T03:03:52;100240.03;;;9.28;100.00
27014;BME280;14556;52.222;4.510;2023-05-10T03:06:19;100236.34;;;9.29;100.00
27014;BME280;14556;52.222;4.510;2023-05-10T03:08:45;100240.84;;;9.28;100.00
27014;BME280;14556;52.222;4.510;2023-05-10T03:11:38;100242.09;;;9.33;100.00
27014;BME280;14556;52.222;4.510;2023-05-10T03:19:58;100231.84;;;9.23;100.00
27014;BME280;14556;52.222;4.510;2023-05-10T03:22:34;100225.88;;;9.27;100.00
27014;BME280;14556;52.222;4.510;2023-05-10T03:25:05;100239.63;;;9.24;100.00
27014;BME280;14556;52.222;4.510;2023-05-10T03:27:34;100231.84;;;9.23;100.00
27014;BME280;14556;52.222;4.510;2023-05-10T03:30:02;100233.47;;;9.17;100.00
27014;BME280;14556;52.222;4.510;2023-05-10T03:32:29;100239.00;;;9.15;100.00
27014;BME280;14556;52.222;4.510;2023-05-10T03:34:58;100236.97;;;9.17;100.00
27014;BME280;14556;52.222;4.510;2023-05-10T03:37:24;100242.47;;;9.16;100.00
27014;BME280;14556;52.222;4.510;2023-05-10T03:39:50;100236.34;;;9.15;100.00
27014;BME280;14556;52.222;4.510;2023-05-10T03:42:17;100227.72;;;9.06;100.00
27014;BME280;14556;52.222;4.510;2023-05-10T03:44:44;100235.50;;;9.15;100.00
27014;BME280;14556;52.222;4.510;2023-05-10T03:47:10;100246.38;;;9.13;100.00
27014;BME280;14556;52.222;4.510;2023-05-10T03:49:37;100240.22;;;9.13;100.00
27014;BME280;14556;52.222;4.510;2023-05-10T03:52:04;100247.22;;;9.14;100.00
27014;BME280;14556;52.222;4.510;2023-05-10T03:54:31;100249.06;;;9.13;100.00
27014;BME280;14556;52.222;4.510;2023-05-10T03:56:58;100251.09;;;9.11;100.00
27014;BME280;14556;52.222;4.510;2023-05-10T03:59:24;100249.69;;;9.09;100.00
27014;BME280;14556;52.222;4.510;2023-05-10T04:01:51;100249.06;;;9.06;100.00
27014;BME280;14556;52.222;4.510;2023-05-10T04:04:17;100247.59;;;9.04;100.00
27014;BME280;14556;52.222;4.510;2023-05-10T04:06:45;100244.50;;;9.00;100.00
27014;BME280;14556;52.222;4.510;2023-05-10T04:09:11;100245.34;;;9.01;100.00
27014;BME280;14556;52.222;4.510;2023-05-10T04:11:38;100244.31;;;8.95;100.00
27014;BME280;14556;52.222;4.510;2023-05-10T04:14:05;100254.97;;;8.95;100.00
27014;BME280;14556;52.222;4.510;2023-05-10T04:16:32;100255.19;;;9.00;100.00
27014;BME280;14556;52.222;4.510;2023-05-10T04:18:58;100259.50;;;9.01;100.00
27014;BME280;14556;52.222;4.510;2023-05-10T04:21:26;100252.50;;;9.00;100.00
27014;BME280;14556;52.222;4.510;2023-05-10T04:23:52;100248.84;;;9.01;100.00
27014;BME280;14556;52.222;4.510;2023-05-10T04:26:18;100252.13;;;9.03;100.00
27014;BME280;14556;52.222;4.510;2023-05-10T04:28:45;100252.34;;;9.02;100.00
27014;BME280;14556;52.222;4.510;2023-05-10T04:31:11;100258.06;;;9.05;100.00
27014;BME280;14556;52.222;4.510;2023-05-10T04:33:39;100257.25;;;9.05;100.00
27014;BME280;14556;52.222;4.510;2023-05-10T04:36:06;100259.72;;;9.06;100.00
27014;BME280;14556;52.222;4.510;2023-05-10T04:38:32;100241.25;;;8.98;100.00
27014;BME280;14556;52.222;4.510;2023-05-10T04:41:09;100259.72;;;9.06;100.00
27014;BME280;14556;52.222;4.510;2023-05-10T04:43:36;100263.63;;;9.11;100.00
27014;BME280;14556;52.222;4.510;2023-05-10T04:46:04;100268.94;;;9.11;100.00
27014;BME280;14556;52.222;4.510;2023-05-10T04:48:31;100273.28;;;9.12;100.00
27014;BME280;14556;52.222;4.510;2023-05-10T04:50:58;100275.75;;;9.13;100.00
27014;BME280;14556;52.222;4.510;2023-05-10T04:53:24;100275.75;;;9.13;100.00
27014;BME280;14556;52.222;4.510;2023-05-10T04:55:51;100281.69;;;9.15;100.00
27014;BME280;14556;52.222;4.510;2023-05-10T04:58:17;100277.16;;;9.16;100.00
27014;BME280;14556;52.222;4.510;2023-05-10T05:00:44;100285.16;;;9.16;100.00
27014;BME280;14556;52.222;4.510;2023-05-10T05:03:10;100283.13;;;9.18;100.00
27014;BME280;14556;52.222;4.510;2023-05-10T05:05:37;100282.31;;;9.17;100.00
27014;BME280;14556;52.222;4.510;2023-05-10T05:08:03;100281.69;;;9.15;100.00
27014;BME280;14556;52.222;4.510;2023-05-10T05:10:30;100290.72;;;9.21;100.00
27014;BME280;14556;52.222;4.510;2023-05-10T05:12:56;100287.47;;;9.26;100.00
27014;BME280;14556;52.222;4.510;2023-05-10T05:15:23;100300.81;;;9.26;100.00
27014;BME280;14556;52.222;4.510;2023-05-10T05:17:49;100293.44;;;9.28;100.00
27014;BME280;14556;52.222;4.510;2023-05-10T05:20:16;100291.34;;;9.30;100.00
27014;BME280;14556;52.222;4.510;2023-05-10T05:22:43;100290.97;;;9.33;100.00
27014;BME280;14556;52.222;4.510;2023-05-10T05:25:10;100298.16;;;9.33;100.00
27014;BME280;14556;52.222;4.510;2023-05-10T05:27:37;100296.50;;;9.31;100.00
27014;BME280;14556;52.222;4.510;2023-05-10T05:30:04;100298.75;;;9.35;100.00
27014;BME280;14556;52.222;4.510;2023-05-10T05:32:31;100301.03;;;9.31;100.00
27014;BME280;14556;52.222;4.510;2023-05-10T05:34:58;100309.44;;;9.35;100.00
27014;BME280;14556;52.222;4.510;2023-05-10T05:37:24;100305.72;;;9.36;100.00
27014;BME280;14556;52.222;4.510;2023-05-10T05:39:51;100310.25;;;9.35;100.00
27014;BME280;14556;52.222;4.510;2023-05-10T05:42:19;100307.41;;;9.37;100.00
27014;BME280;14556;52.222;4.510;2023-05-10T05:44:45;100314.16;;;9.39;100.00
27014;BME280;14556;52.222;4.510;2023-05-10T05:47:12;100312.53;;;9.45;100.00
27014;BME280;14556;52.222;4.510;2023-05-10T05:49:38;100311.69;;;9.45;100.00
27014;BME280;14556;52.222;4.510;2023-05-10T05:52:05;100312.75;;;9.43;100.00
27014;BME280;14556;52.222;4.510;2023-05-10T05:54:32;100314.38;;;9.45;100.00
27014;BME280;14556;52.222;4.510;2023-05-10T05:57:00;100316.41;;;9.49;100.00
27014;BME280;14556;52.222;4.510;2023-05-10T05:59:27;100316.03;;;9.52;100.00
27014;BME280;14556;52.222;4.510;2023-05-10T06:01:54;100318.28;;;9.55;100.00
27014;BME280;14556;52.222;4.510;2023-05-10T06:04:21;100313.38;;;9.52;100.00
27014;BME280;14556;52.222;4.510;2023-05-10T06:06:47;100315.19;;;9.59;100.00
27014;BME280;14556;52.222;4.510;2023-05-10T06:09:14;100320.13;;;9.62;100.00
27014;BME280;14556;52.222;4.510;2023-05-10T06:11:40;100332.25;;;9.64;100.00
27014;BME280;14556;52.222;4.510;2023-05-10T06:14:07;100332.47;;;9.70;100.00
27014;BME280;14556;52.222;4.510;2023-05-10T06:16:34;100335.97;;;9.77;100.00
27014;BME280;14556;52.222;4.510;2023-05-10T06:19:02;100326.09;;;9.71;100.00
27014;BME280;14556;52.222;4.510;2023-05-10T06:21:29;100338.84;;;9.75;100.00
27014;BME280;14556;52.222;4.510;2023-05-10T06:23:56;100333.88;;;9.72;100.00
27014;BME280;14556;52.222;4.510;2023-05-10T06:26:23;100337.81;;;9.76;100.00
27014;BME280;14556;52.222;4.510;2023-05-10T06:28:49;100338.84;;;9.75;100.00
27014;BME280;14556;52.222;4.510;2023-05-10T06:31:15;100339.66;;;9.76;100.00
27014;BME280;14556;52.222;4.510;2023-05-10T06:33:42;100331.63;;;9.76;100.00
27014;BME280;14556;52.222;4.510;2023-05-10T06:36:09;100346.44;;;9.85;100.00
27014;BME280;14556;52.222;4.510;2023-05-10T06:38:35;100341.72;;;9.81;100.00
27014;BME280;14556;52.222;4.510;2023-05-10T06:41:02;100336.97;;;9.83;100.00
27014;BME280;14556;52.222;4.510;2023-05-10T06:43:28;100343.34;;;9.88;100.00
27014;BME280;14556;52.222;4.510;2023-05-10T06:45:55;100344.59;;;9.86;100.00
27014;BME280;14556;52.222;4.510;2023-05-10T06:48:22;100336.78;;;9.91;100.00
27014;BME280;14556;52.222;4.510;2023-05-10T06:50:49;100329.16;;;9.81;100.00
27014;BME280;14556;52.222;4.510;2023-05-10T06:53:15;100347.06;;;9.94;100.00
27014;BME280;14556;52.222;4.510;2023-05-10T06:55:41;100348.66;;;10.02;100.00
27014;BME280;14556;52.222;4.510;2023-05-10T06:58:08;100351.16;;;10.10;100.00
27014;BME280;14556;52.222;4.510;2023-05-10T07:00:35;100343.13;;;10.10;100.00
27014;BME280;14556;52.222;4.510;2023-05-10T07:03:01;100348.06;;;10.13;100.00
27014;BME280;14556;52.222;4.510;2023-05-10T07:05:28;100352.56;;;10.20;100.00
27014;BME280;14556;52.222;4.510;2023-05-10T07:07:55;100348.28;;;10.12;100.00
27014;BME280;14556;52.222;4.510;2023-05-10T07:10:22;100347.22;;;10.13;100.00
27014;BME280;14556;52.222;4.510;2023-05-10T07:12:48;100359.16;;;10.24;100.00
27014;BME280;14556;52.222;4.510;2023-05-10T07:15:15;100363.22;;;10.40;100.00
27014;BME280;14556;52.222;4.510;2023-05-10T07:17:42;100358.91;;;10.32;100.00
27014;BME280;14556;52.222;4.510;2023-05-10T07:20:11;100358.69;;;10.40;100.00
27014;BME280;14556;52.222;4.510;2023-05-10T07:22:38;100364.66;;;10.43;100.00
27014;BME280;14556;52.222;4.510;2023-05-10T07:25:05;100358.25;;;10.44;100.00
27014;BME280;14556;52.222;4.510;2023-05-10T07:27:31;100358.47;;;10.42;100.00
27014;BME280;14556;52.222;4.510;2023-05-10T07:29:58;100358.25;;;10.44;100.00
27014;BME280;14556;52.222;4.510;2023-05-10T07:32:25;100361.16;;;10.42;100.00
27014;BME280;14556;52.222;4.510;2023-05-10T07:34:52;100362.59;;;10.45;100.00
27014;BME280;14556;52.222;4.510;2023-05-10T07:37:18;100363.88;;;10.49;100.00
27014;BME280;14556;52.222;4.510;2023-05-10T07:39:45;100367.94;;;10.51;100.00
27014;BME280;14556;52.222;4.510;2023-05-10T07:42:11;100372.69;;;10.49;100.00
27014;BME280;14556;52.222;4.510;2023-05-10T07:44:38;100374.34;;;10.50;100.00
27014;BME280;14556;52.222;4.510;2023-05-10T07:47:04;100373.91;;;10.54;100.00
27014;BME280;14556;52.222;4.510;2023-05-10T07:49:31;100376.81;;;10.52;100.00
27014;BME280;14556;52.222;4.510;2023-05-10T07:51:57;100379.25;;;10.60;100.00
27014;BME280;14556;52.222;4.510;2023-05-10T07:54:24;100375.31;;;10.63;100.00
27014;BME280;14556;52.222;4.510;2023-05-10T07:56:50;100376.56;;;10.60;100.00
27014;BME280;14556;52.222;4.510;2023-05-10T07:59:17;100374.09;;;10.59;100.00
27014;BME280;14556;52.222;4.510;2023-05-10T08:01:43;100379.88;;;10.62;100.00
27014;BME280;14556;52.222;4.510;2023-05-10T08:04:10;100373.06;;;10.60;100.00
27014;BME280;14556;52.222;4.510;2023-05-10T08:06:37;100380.88;;;10.61;100.00
27014;BME280;14556;52.222;4.510;2023-05-10T08:09:04;100391.97;;;10.65;100.00
27014;BME280;14556;52.222;4.510;2023-05-10T08:11:30;100380.66;;;10.63;100.00
27014;BME280;14556;52.222;4.510;2023-05-10T08:14:00;100382.09;;;10.66;100.00
27014;BME280;14556;52.222;4.510;2023-05-10T08:16:26;100389.09;;;10.73;100.00
27014;BME280;14556;52.222;4.510;2023-05-10T08:18:53;100389.47;;;10.77;100.00
27014;BME280;14556;52.222;4.510;2023-05-10T08:21:21;100391.53;;;10.82;100.00
27014;BME280;14556;52.222;4.510;2023-05-10T08:23:48;100397.88;;;10.87;100.00
27014;BME280;14556;52.222;4.510;2023-05-10T08:26:15;100393.56;;;10.86;100.00
27014;BME280;14556;52.222;4.510;2023-05-10T08:28:41;100401.78;;;10.92;100.00
27014;BME280;14556;52.222;4.510;2023-05-10T08:31:08;100399.69;;;11.00;100.00
27014;BME280;14556;52.222;4.510;2023-05-10T08:33:35;100400.72;;;10.99;100.00
27014;BME280;14556;52.222;4.510;2023-05-10T08:36:01;100409.53;;;11.07;100.00
27014;BME280;14556;52.222;4.510;2023-05-10T08:38:28;100407.91;;;11.06;100.00
27014;BME280;14556;52.222;4.510;2023-05-10T08:40:55;100414.50;;;11.03;100.00
27014;BME280;14556;52.222;4.510;2023-05-10T08:43:27;100421.47;;;11.11;100.00
27014;BME280;14556;52.222;4.510;2023-05-10T08:46:00;100428.44;;;11.12;100.00
27014;BME280;14556;52.222;4.510;2023-05-10T08:48:29;100409.97;;;11.04;100.00
27014;BME280;14556;52.222;4.510;2023-05-10T08:50:58;100427.28;;;11.01;100.00
27014;BME280;14556;52.222;4.510;2023-05-10T08:53:26;100432.00;;;11.06;100.00
27014;BME280;14556;52.222;4.510;2023-05-10T08:55:55;100431.13;;;11.12;100.00
27014;BME280;14556;52.222;4.510;2023-05-10T08:58:22;100442.03;;;11.10;100.00
27014;BME280;14556;52.222;4.510;2023-05-10T09:00:49;100435.69;;;11.11;100.00
27014;BME280;14556;52.222;4.510;2023-05-10T09:03:18;100449.44;;;11.22;100.00
27014;BME280;14556;52.222;4.510;2023-05-10T09:05:45;100447.41;;;11.17;100.00
27014;BME280;14556;52.222;4.510;2023-05-10T09:08:13;100459.72;;;11.25;100.00
27014;BME280;14556;52.222;4.510;2023-05-10T09:10:41;100455.22;;;11.19;100.00
27014;BME280;14556;52.222;4.510;2023-05-10T09:13:10;100459.75;;;11.18;100.00
27014;BME280;14556;52.222;4.510;2023-05-10T09:15:38;100460.97;;;11.16;100.00
27014;BME280;14556;52.222;4.510;2023-05-10T09:18:05;100457.91;;;11.19;100.00
27014;BME280;14556;52.222;4.510;2023-05-10T09:20:31;100472.09;;;11.19;100.00
27014;BME280;14556;52.222;4.510;2023-05-10T09:22:59;100469.63;;;11.18;100.00
27014;BME280;14556;52.222;4.510;2023-05-10T09:25:26;100458.72;;;11.12;100.00
27014;BME280;14556;52.222;4.510;2023-05-10T09:27:52;100468.38;;;11.20;100.00
27014;BME280;14556;52.222;4.510;2023-05-10T09:30:30;100468.16;;;11.22;100.00
27014;BME280;14556;52.222;4.510;2023-05-10T09:32:58;100471.47;;;11.24;100.00
27014;BME280;14556;52.222;4.510;2023-05-10T09:35:30;100472.66;;;11.28;100.00
27014;BME280;14556;52.222;4.510;2023-05-10T09:37:59;100471.03;;;11.27;100.00
27014;BME280;14556;52.222;4.510;2023-05-10T09:40:28;100459.53;;;11.20;100.00
27014;BME280;14556;52.222;4.510;2023-05-10T09:43:06;100447.59;;;11.22;100.00
27014;BME280;14556;52.222;4.510;2023-05-10T09:45:35;100452.50;;;11.26;100.00
27014;BME280;14556;52.222;4.510;2023-05-10T09:48:04;100484.13;;;11.42;100.00
27014;BME280;14556;52.222;4.510;2023-05-10T09:50:31;100488.09;;;11.40;100.00
27014;BME280;14556;52.222;4.510;2023-05-10T09:53:00;100490.75;;;11.40;100.00
27014;BME280;14556;52.222;4.510;2023-05-10T09:55:44;100490.53;;;11.41;100.00
27014;BME280;14556;52.222;4.510;2023-05-10T09:58:15;100484.38;;;11.34;100.00
27014;BME280;14556;52.222;4.510;2023-05-10T10:00:46;100494.84;;;11.42;100.00
27014;BME280;14556;52.222;4.510;2023-05-10T10:03:19;100497.97;;;11.39;100.00
27014;BME280;14556;52.222;4.510;2023-05-10T10:05:47;100494.44;;;11.39;100.00
27014;BME280;14556;52.222;4.510;2023-05-10T10:08:15;100489.31;;;11.37;100.00
27014;BME280;14556;52.222;4.510;2023-05-10T10:10:42;100500.03;;;11.37;100.00
27014;BME280;14556;52.222;4.510;2023-05-10T10:13:11;100498.41;;;11.36;100.00
27014;BME280;14556;52.222;4.510;2023-05-10T10:15:38;100506.44;;;11.36;100.00
27014;BME280;14556;52.222;4.510;2023-05-10T10:18:05;100511.16;;;11.34;100.00
27014;BME280;14556;52.222;4.510;2023-05-10T10:20:34;100501.31;;;11.28;100.00
27014;BME280;14556;52.222;4.510;2023-05-10T10:23:00;100500.06;;;11.30;100.00
27014;BME280;14556;52.222;4.510;2023-05-10T10:25:27;100491.84;;;11.25;100.00
27014;BME280;14556;52.222;4.510;2023-05-10T10:30:43;100490.22;;;11.24;100.00
27014;BME280;14556;52.222;4.510;2023-05-10T10:33:26;100503.78;;;11.29;100.00
27014;BME280;14556;52.222;4.510;2023-05-10T10:35:55;100510.16;;;11.28;100.00
27014;BME280;14556;52.222;4.510;2023-05-10T10:38:24;100510.38;;;11.27;100.00
27014;BME280;14556;52.222;4.510;2023-05-10T10:41:11;100499.72;;;11.13;100.00
27014;BME280;14556;52.222;4.510;2023-05-10T10:47:01;100522.97;;;11.12;100.00
27014;BME280;14556;52.222;4.510;2023-05-10T10:49:32;100517.00;;;11.10;100.00
27014;BME280;14556;52.222;4.510;2023-05-10T10:55:18;100528.13;;;11.07;100.00
27014;BME280;14556;52.222;4.510;2023-05-10T10:57:48;100526.50;;;11.06;100.00
27014;BME280;14556;52.222;4.510;2023-05-10T11:00:28;100533.91;;;11.04;100.00
27014;BME280;14556;52.222;4.510;2023-05-10T11:03:12;100535.31;;;11.07;100.00
27014;BME280;14556;52.222;4.510;2023-05-10T11:05:46;100533.91;;;11.04;100.00
27014;BME280;14556;52.222;4.510;2023-05-10T11:11:13;100543.16;;;11.02;100.00
27014;BME280;14556;52.222;4.510;2023-05-10T11:13:42;100546.47;;;10.97;100.00
27014;BME280;14556;52.222;4.510;2023-05-10T11:16:23;100524.88;;;10.85;100.00
27014;BME280;14556;52.222;4.510;2023-05-10T11:19:10;100543.59;;;10.92;100.00
27014;BME280;14556;52.222;4.510;2023-05-10T11:24:16;100542.78;;;10.91;100.00
27014;BME280;14556;52.222;4.510;2023-05-10T11:26:43;100545.44;;;10.91;100.00
27014;BME280;14556;52.222;4.510;2023-05-10T11:29:12;100543.38;;;10.93;100.00
27014;BME280;14556;52.222;4.510;2023-05-10T11:31:43;100538.03;;;10.93;100.00
27014;BME280;14556;52.222;4.510;2023-05-10T11:34:10;100545.25;;;10.99;100.00
27014;BME280;14556;52.222;4.510;2023-05-10T11:36:38;100536.59;;;10.97;100.00
27014;BME280;14556;52.222;4.510;2023-05-10T11:39:05;100549.53;;;11.07;100.00
27014;BME280;14556;52.222;4.510;2023-05-10T11:41:32;100546.22;;;11.12;100.00
27014;BME280;14556;52.222;4.510;2023-05-10T11:43:58;100551.81;;;11.17;100.00
27014;BME280;14556;52.222;4.510;2023-05-10T11:46:26;100545.41;;;11.18;100.00
27014;BME280;14556;52.222;4.510;2023-05-10T11:49:02;100543.16;;;11.15;100.00
27014;BME280;14556;52.222;4.510;2023-05-10T11:51:34;100541.09;;;11.17;100.00
27014;BME280;14556;52.222;4.510;2023-05-10T11:54:07;100528.75;;;11.09;100.00
27014;BME280;14556;52.222;4.510;2023-05-10T11:56:40;100541.28;;;11.22;100.00
27014;BME280;14556;52.222;4.510;2023-05-10T11:59:07;100547.66;;;11.21;100.00
27014;BME280;14556;52.222;4.510;2023-05-10T12:01:34;100551.78;;;11.24;100.00
27014;BME280;14556;52.222;4.510;2023-05-10T12:04:01;100544.16;;;11.28;100.00
27014;BME280;14556;52.222;4.510;2023-05-10T12:06:32;100550.09;;;11.30;100.00
27014;BME280;14556;52.222;4.510;2023-05-10T12:09:06;100543.31;;;11.27;100.00
27014;BME280;14556;52.222;4.510;2023-05-10T12:11:36;100557.13;;;11.31;100.00
27014;BME280;14556;52.222;4.510;2023-05-10T12:14:04;100554.03;;;11.27;100.00
27014;BME280;14556;52.222;4.510;2023-05-10T12:16:32;100555.66;;;11.28;100.00
27014;BME280;14556;52.222;4.510;2023-05-10T12:18:59;100566.16;;;11.30;100.00
27014;BME280;14556;52.222;4.510;2023-05-10T12:21:28;100562.47;;;11.31;100.00
27014;BME280;14556;52.222;4.510;2023-05-10T12:24:01;100557.34;;;11.29;100.00
27014;BME280;14556;52.222;4.510;2023-05-10T12:26:28;100571.53;;;11.30;100.00
27014;BME280;14556;52.222;4.510;2023-05-10T12:29:14;100557.13;;;11.24;100.00
27014;BME280;14556;52.222;4.510;2023-05-10T12:31:59;100575.84;;;11.31;100.00
27014;BME280;14556;52.222;4.510;2023-05-10T12:34:34;100572.34;;;11.30;100.00
27014;BME280;14556;52.222;4.510;2023-05-10T12:37:02;100566.78;;;11.32;100.00
27014;BME280;14556;52.222;4.510;2023-05-10T12:39:43;100563.28;;;11.24;100.00
27014;BME280;14556;52.222;4.510;2023-05-10T12:42:10;100572.75;;;11.34;100.00
27014;BME280;14556;52.222;4.510;2023-05-10T12:44:36;100574.81;;;11.32;100.00
27014;BME280;14556;52.222;4.510;2023-05-10T12:47:03;100583.47;;;11.34;100.00
27014;BME280;14556;52.222;4.510;2023-05-10T12:49:29;100581.41;;;11.36;100.00
27014;BME280;14556;52.222;4.510;2023-05-10T12:51:56;100583.66;;;11.39;100.00
27014;BME280;14556;52.222;4.510;2023-05-10T12:54:22;100582.63;;;11.40;100.00
27014;BME280;14556;52.222;4.510;2023-05-10T12:56:49;100586.56;;;11.38;100.00
27014;BME280;14556;52.222;4.510;2023-05-10T12:59:15;100585.72;;;11.37;100.00
27014;BME280;14556;52.222;4.510;2023-05-10T13:01:42;100584.09;;;11.36;100.00
27014;BME280;14556;52.222;4.510;2023-05-10T13:04:08;100589.00;;;11.39;100.00
27014;BME280;14556;52.222;4.510;2023-05-10T13:06:35;100592.53;;;11.40;100.00
27014;BME280;14556;52.222;4.510;2023-05-10T13:09:02;100587.78;;;11.42;100.00
27014;BME280;14556;52.222;4.510;2023-05-10T13:11:28;100597.03;;;11.46;100.00
27014;BME280;14556;52.222;4.510;2023-05-10T13:13:55;100598.47;;;11.48;100.00
27014;BME280;14556;52.222;4.510;2023-05-10T13:16:21;100596.59;;;11.49;100.00
27014;BME280;14556;52.222;4.510;2023-05-10T13:18:48;100604.84;;;11.47;100.00
27014;BME280;14556;52.222;4.510;2023-05-10T13:21:15;100590.66;;;11.40;100.00
27014;BME280;14556;52.222;4.510;2023-05-10T13:23:42;100593.91;;;11.49;100.00
27014;BME280;14556;52.222;4.510;2023-05-10T13:26:09;100593.72;;;11.51;100.00